ESOK/KSD METAR and TAF weather

Enter ICAO airport designator
Station Type Date Time Source
ESOK METAR 2020/02/24 23:20 UTC NOAA

ESOK 242320Z AUTO 03007KT 9999 SCT038/// M03/M03 Q0998


Station Type Date Time Source
ESOK Decoded METAR 2020/02/24 23:20 UTC NOAA

Karlstad , Sweden (ESOK) 59-26-41N 013-20-15E
Feb 24, 2020 - 06:20 PM EST / 2020.02.24 2320 UTC
Wind: from the NNE (030 degrees) at 8 MPH (7 KT):0
Visibility: greater than 7 mile(s):0
Sky conditions: partly cloudy
Temperature: 26 F (-3 C)
Windchill: 17 F (-8 C):1
Dew Point: 26 F (-3 C)
Relative Humidity: 100%
Pressure (altimeter): 29.47 in. Hg (0998 hPa)
ob: ESOK 242320Z AUTO 03007KT 9999 SCT038/// M03/M03 Q0998
cycle: 23

Station Type Date Time Source
ESOK TAF 2017/05/22 06:33 UTC NOAA

TAF ESOK 220530Z 2206/2224 28006KT CAVOK

Example: see airport list